createdAt,value
2023-04-25T00:01:44.507Z,7.68
2023-04-25T00:04:15.445Z,7.70
2023-04-25T00:06:45.956Z,7.60
2023-04-25T00:09:18.698Z,7.59
2023-04-25T00:11:48.926Z,7.72
2023-04-25T00:14:19.108Z,7.57
2023-04-25T00:16:49.500Z,7.47
2023-04-25T00:19:19.944Z,7.44
2023-04-25T00:21:50.240Z,7.56
2023-04-25T00:24:23.209Z,7.48
2023-04-25T00:26:53.388Z,7.56
2023-04-25T00:29:23.620Z,7.47
2023-04-25T00:31:54.203Z,7.32
2023-04-25T00:34:24.446Z,7.29
2023-04-25T00:36:54.659Z,7.47
2023-04-25T00:39:27.495Z,7.58
2023-04-25T00:42:01.801Z,7.60
2023-04-25T00:44:33.300Z,7.66
2023-04-25T00:47:04.702Z,7.72
2023-04-25T00:49:35.580Z,7.79
2023-04-25T00:52:05.851Z,7.80
2023-04-25T00:54:38.727Z,7.83
2023-04-25T00:57:09.320Z,7.77
2023-04-25T00:59:40.052Z,7.77
2023-04-25T01:02:10.838Z,7.89
2023-04-25T01:04:41.782Z,7.88
2023-04-25T01:07:12.590Z,7.79
2023-04-25T01:09:45.685Z,7.79
2023-04-25T01:12:16.454Z,7.88
2023-04-25T01:14:46.616Z,7.96
2023-04-25T01:17:17.130Z,7.88
2023-04-25T01:19:47.344Z,7.84
2023-04-25T01:22:20.559Z,7.83
2023-04-25T01:24:50.980Z,7.82
2023-04-25T01:27:21.976Z,7.83
2023-04-25T01:29:52.782Z,7.77
2023-04-25T01:32:23.936Z,7.70
2023-04-25T01:34:54.370Z,7.67
2023-04-25T01:37:27.167Z,7.69
2023-04-25T01:39:57.548Z,7.69
2023-04-25T01:42:27.773Z,7.63
2023-04-25T01:44:57.960Z,7.58
2023-04-25T01:47:28.710Z,7.55
2023-04-25T01:49:59.756Z,7.53
2023-04-25T01:52:32.519Z,7.50
2023-04-25T01:55:03.490Z,7.39
2023-04-25T01:57:36.805Z,7.36
2023-04-25T02:00:10.042Z,7.30
2023-04-25T02:02:42.984Z,7.29
2023-04-25T02:05:40.278Z,7.25
2023-04-25T02:08:16.007Z,7.07
2023-04-25T02:10:46.276Z,7.02
2023-04-25T02:13:22.396Z,6.88
2023-04-25T02:16:01.622Z,6.82
2023-04-25T02:18:32.475Z,6.65
2023-04-25T02:21:04.013Z,6.61
2023-04-25T02:23:37.119Z,6.48
2023-04-25T02:26:07.534Z,6.45
2023-04-25T02:28:37.863Z,6.40
2023-04-25T02:31:08.885Z,6.29
2023-04-25T02:33:39.127Z,6.31
2023-04-25T02:36:10.498Z,6.23
2023-04-25T02:38:43.313Z,6.21
2023-04-25T02:41:13.484Z,6.25
2023-04-25T02:43:43.640Z,6.24
2023-04-25T02:46:14.405Z,6.18
2023-04-25T02:48:44.721Z,6.22
2023-04-25T02:51:15.145Z,6.28
2023-04-25T02:53:48.458Z,6.33
2023-04-25T02:56:18.839Z,6.31
2023-04-25T02:58:49.072Z,6.26
2023-04-25T03:01:19.432Z,6.24
2023-04-25T03:03:49.997Z,6.20
2023-04-25T03:06:21.136Z,6.25
2023-04-25T03:08:54.183Z,6.33
2023-04-25T03:11:24.434Z,6.42
2023-04-25T03:13:54.750Z,6.39
2023-04-25T03:16:25.133Z,6.37
2023-04-25T03:18:55.391Z,6.32
2023-04-25T03:21:26.330Z,6.38
2023-04-25T03:23:59.427Z,6.32
2023-04-25T03:26:29.788Z,6.40
2023-04-25T03:29:00.062Z,6.53
2023-04-25T03:31:30.574Z,6.48
2023-04-25T03:34:00.892Z,6.55
2023-04-25T03:36:31.328Z,6.56
2023-04-25T03:39:04.117Z,6.59
2023-04-25T03:41:35.702Z,6.60
2023-04-25T03:44:10.566Z,6.64
2023-04-25T03:46:40.871Z,6.60
2023-04-25T03:49:11.127Z,6.53
2023-04-25T03:51:59.476Z,6.37
2023-04-25T03:54:32.366Z,6.29
2023-04-25T03:57:22.932Z,6.17
2023-04-25T03:59:53.122Z,6.05
2023-04-25T04:02:23.639Z,6.00
2023-04-25T04:04:57.340Z,5.86
2023-04-25T04:07:27.882Z,5.93
2023-04-25T04:10:03.563Z,6.15
2023-04-25T04:12:39.758Z,6.25
2023-04-25T04:15:11.033Z,6.30
2023-04-25T04:17:41.859Z,6.38
2023-04-25T04:20:12.835Z,6.31
2023-04-25T04:22:44.240Z,6.26
2023-04-25T04:25:19.655Z,6.24
2023-04-25T04:28:17.302Z,6.34
2023-04-25T04:31:05.089Z,6.43
2023-04-25T04:33:35.929Z,6.52
2023-04-25T04:36:08.770Z,6.48
2023-04-25T04:38:41.858Z,6.43
2023-04-25T04:41:17.416Z,6.52
2023-04-25T04:44:15.216Z,6.74
2023-04-25T04:47:11.873Z,6.91
2023-04-25T04:50:00.765Z,7.02
2023-04-25T04:52:42.948Z,7.00
2023-04-25T04:55:33.424Z,7.12
2023-04-25T04:58:34.437Z,7.06
2023-04-25T05:01:17.158Z,7.30
2023-04-25T05:04:06.650Z,7.56
2023-04-25T05:06:48.758Z,7.74
2023-04-25T05:09:20.392Z,7.83
2023-04-25T05:12:10.952Z,7.82
2023-04-25T05:14:56.370Z,7.83
2023-04-25T05:17:55.875Z,7.87
2023-04-25T05:20:49.135Z,8.24
2023-04-25T05:23:29.069Z,8.22
2023-04-25T05:26:19.620Z,8.18
2023-04-25T05:29:28.412Z,8.15
2023-04-25T05:32:13.153Z,8.23
2023-04-25T05:34:43.437Z,8.32
2023-04-25T05:37:23.310Z,8.41
2023-04-25T05:40:02.630Z,8.42
2023-04-25T05:42:59.053Z,8.78
2023-04-25T05:45:49.586Z,8.94
2023-04-25T05:48:48.757Z,8.98
2023-04-25T05:51:42.070Z,9.02
2023-04-25T05:54:30.577Z,9.14
2023-04-25T05:57:01.157Z,9.35
2023-04-25T05:59:31.385Z,9.53
2023-04-25T06:02:02.031Z,9.72
2023-04-25T06:04:38.216Z,9.90
2023-04-25T06:07:09.434Z,10.14
2023-04-25T06:09:40.730Z,10.60
2023-04-25T06:12:10.970Z,10.48
2023-04-25T06:14:41.687Z,10.71
2023-04-25T06:17:11.998Z,10.81
2023-04-25T06:19:44.788Z,10.81
2023-04-25T06:22:16.154Z,10.48
2023-04-25T06:24:46.988Z,9.86
2023-04-25T06:27:17.270Z,9.55
2023-04-25T06:29:47.689Z,9.39
2023-04-25T06:32:19.247Z,9.64
2023-04-25T06:34:52.221Z,9.74
2023-04-25T06:37:22.451Z,9.66
2023-04-25T06:39:54.569Z,9.54
2023-04-25T06:42:24.935Z,9.13
2023-04-25T06:45:02.460Z,8.95
2023-04-25T06:47:34.066Z,8.86
2023-04-25T06:50:08.916Z,8.90
2023-04-25T06:52:40.154Z,8.77
2023-04-25T06:55:10.856Z,8.52
2023-04-25T06:57:59.549Z,8.33
2023-04-25T07:00:56.029Z,8.17
2023-04-25T07:03:28.629Z,8.20
2023-04-25T07:06:06.257Z,8.26
2023-04-25T07:08:36.647Z,8.24
2023-04-25T07:11:07.009Z,8.44
2023-04-25T07:13:37.693Z,8.53
2023-04-25T07:16:08.220Z,8.49
2023-04-25T07:18:39.767Z,8.52
2023-04-25T07:21:12.741Z,8.56
2023-04-25T07:23:44.293Z,8.38
2023-04-25T07:26:18.826Z,8.38
2023-04-25T07:29:19.171Z,8.44
2023-04-25T07:31:49.481Z,8.55
2023-04-25T07:34:19.814Z,8.50
2023-04-25T07:36:52.736Z,8.25
2023-04-25T07:39:24.345Z,8.03
2023-04-25T07:41:55.631Z,7.75
2023-04-25T07:44:31.516Z,7.58
2023-04-25T07:47:03.909Z,7.54
2023-04-25T07:49:34.790Z,7.59
2023-04-25T07:52:09.169Z,7.65
2023-04-25T07:54:41.802Z,7.71
2023-04-25T07:57:19.747Z,7.74
2023-04-25T07:59:51.545Z,7.86
2023-04-25T08:02:22.631Z,7.93
2023-04-25T08:04:53.683Z,7.89
2023-04-25T08:07:27.800Z,7.72
2023-04-25T08:10:00.298Z,7.73
2023-04-25T08:12:35.893Z,7.68
2023-04-25T08:15:08.298Z,7.75
2023-04-25T08:17:41.670Z,7.79
2023-04-25T08:20:12.478Z,7.68
2023-04-25T08:22:46.085Z,7.48
2023-04-25T08:25:30.837Z,7.43
2023-04-25T08:28:03.873Z,7.38
2023-04-25T08:30:34.363Z,7.50
2023-04-25T08:33:04.921Z,7.44
2023-04-25T08:36:01.344Z,7.67
2023-04-25T08:38:35.515Z,7.69
2023-04-25T08:41:08.945Z,7.58
2023-04-25T08:43:39.598Z,7.60
2023-04-25T08:46:10.007Z,7.77
2023-04-25T08:48:49.361Z,7.68
2023-04-25T08:51:26.801Z,7.75
2023-04-25T08:54:06.805Z,7.74
2023-04-25T08:56:40.334Z,7.73
2023-04-25T08:59:11.464Z,7.80
2023-04-25T09:01:42.132Z,7.70
2023-04-25T09:04:12.597Z,7.88
2023-04-25T09:06:45.054Z,7.80
2023-04-25T09:09:18.631Z,7.54
2023-04-25T09:11:48.878Z,7.75
2023-04-25T09:14:21.693Z,7.90
2023-04-25T09:17:09.044Z,7.77
2023-04-25T09:19:48.190Z,7.63
2023-04-25T09:22:36.389Z,7.53
2023-04-25T09:25:12.305Z,7.59
2023-04-25T09:27:53.280Z,7.77
2023-04-25T09:30:33.467Z,7.82
2023-04-25T09:33:12.268Z,8.03
2023-04-25T09:35:46.858Z,8.14
2023-04-25T09:38:25.132Z,7.98
2023-04-25T09:40:57.984Z,7.98
2023-04-25T09:43:43.065Z,7.44
2023-04-25T09:46:14.834Z,7.62
2023-04-25T09:48:52.140Z,7.65
2023-04-25T09:51:29.966Z,7.49
2023-04-25T09:54:02.715Z,7.47
2023-04-25T09:56:46.173Z,7.54
2023-04-25T09:59:16.901Z,7.54
2023-04-25T10:01:47.720Z,7.54
2023-04-25T10:04:33.859Z,7.56
2023-04-25T10:07:09.133Z,7.77
2023-04-25T10:09:41.164Z,7.64
2023-04-25T10:12:14.496Z,7.59
2023-04-25T10:24:08.119Z,6.98
2023-04-25T10:26:38.564Z,6.90
2023-04-25T10:29:13.141Z,6.90
2023-04-25T10:31:49.312Z,6.79
2023-04-25T10:34:19.840Z,6.69
2023-04-25T10:36:53.339Z,6.63
2023-04-25T10:39:27.450Z,6.71
2023-04-25T10:41:59.798Z,6.68
2023-04-25T10:44:33.636Z,6.77
2023-04-25T10:47:06.873Z,6.70
2023-04-25T10:49:37.660Z,6.72
2023-04-25T10:52:21.320Z,6.79
2023-04-25T10:54:52.392Z,6.95
2023-04-25T10:57:32.560Z,6.88
2023-04-25T11:00:19.606Z,6.84
2023-04-25T11:02:51.271Z,6.68
2023-04-25T11:05:25.190Z,6.62
2023-04-25T11:08:06.596Z,6.66
2023-04-25T11:10:39.072Z,6.68
2023-04-25T11:13:09.529Z,6.60
2023-04-25T11:15:42.317Z,6.70
2023-04-25T11:18:12.608Z,6.92
2023-04-25T11:20:42.878Z,7.18
2023-04-25T11:23:13.139Z,6.83
2023-04-25T11:25:43.360Z,6.72
2023-04-25T11:28:13.623Z,6.32
2023-04-25T11:30:51.601Z,6.37
2023-04-25T11:33:26.484Z,6.31
2023-04-25T11:35:57.764Z,6.35
2023-04-25T11:38:29.517Z,6.28
2023-04-25T11:41:01.118Z,6.43
2023-04-25T11:43:32.553Z,6.68
2023-04-25T11:46:10.120Z,6.88
2023-04-25T11:48:41.084Z,7.03
2023-04-25T11:51:11.582Z,6.90
2023-04-25T11:53:44.725Z,7.30
2023-04-25T11:56:15.618Z,7.65
2023-04-25T11:58:58.573Z,7.71
2023-04-25T12:01:35.514Z,7.75
2023-04-25T12:04:16.286Z,7.76
2023-04-25T12:06:48.696Z,8.18
2023-04-25T12:09:19.993Z,8.61
2023-04-25T12:11:51.249Z,8.60
2023-04-25T12:14:25.505Z,8.41
2023-04-25T12:16:59.325Z,8.92
2023-04-25T12:19:30.354Z,8.68
2023-04-25T12:22:00.860Z,8.41
2023-04-25T12:24:31.470Z,8.59
2023-04-25T12:27:07.009Z,9.07
2023-04-25T12:29:49.357Z,8.55
2023-04-25T12:32:23.078Z,8.53
2023-04-25T12:34:53.563Z,8.66
2023-04-25T12:37:23.815Z,8.78
2023-04-25T12:39:54.387Z,8.90
2023-04-25T12:42:24.642Z,8.94
2023-04-25T12:44:54.868Z,8.96
2023-04-25T12:47:27.695Z,8.54
2023-04-25T12:49:57.949Z,8.38
2023-04-25T12:52:28.141Z,8.22
2023-04-25T12:54:58.530Z,8.18
2023-04-25T12:57:28.753Z,8.34
2023-04-25T12:59:58.966Z,8.59
2023-04-25T13:02:31.978Z,8.58
2023-04-25T13:05:02.280Z,8.91
2023-04-25T13:07:34.090Z,9.71
2023-04-25T13:10:06.897Z,10.40
2023-04-25T13:12:37.601Z,10.85
2023-04-25T13:15:10.439Z,11.02
2023-04-25T13:17:43.421Z,10.39
2023-04-25T13:20:14.932Z,11.27
2023-04-25T13:22:46.868Z,11.98
2023-04-25T13:25:17.666Z,12.47
2023-04-25T13:27:48.015Z,12.72
2023-04-25T13:30:18.693Z,13.43
2023-04-25T13:32:51.552Z,15.07
2023-04-25T13:35:22.003Z,15.36
2023-04-25T13:37:52.406Z,15.39
2023-04-25T13:40:24.663Z,15.07
2023-04-25T13:42:55.869Z,14.13
2023-04-25T13:45:26.175Z,14.04
2023-04-25T13:47:59.077Z,13.47
2023-04-25T13:50:29.518Z,13.06
2023-04-25T13:52:59.902Z,12.61
2023-04-25T13:55:30.326Z,13.03
2023-04-25T13:58:01.035Z,12.39
2023-04-25T14:00:32.569Z,12.97
2023-04-25T14:03:09.210Z,13.39
2023-04-25T14:05:41.424Z,14.39
2023-04-25T14:08:12.209Z,13.71
2023-04-25T14:10:42.470Z,14.00
2023-04-25T14:13:12.679Z,13.69
2023-04-25T14:15:42.977Z,13.28
2023-04-25T14:18:15.940Z,12.55
2023-04-25T14:20:46.415Z,12.27
2023-04-25T14:23:16.647Z,12.32
2023-04-25T14:25:46.857Z,12.97
2023-04-25T14:28:17.106Z,13.09
2023-04-25T14:30:47.406Z,12.62
2023-04-25T14:33:20.234Z,12.36
2023-04-25T14:35:50.658Z,13.71
2023-04-25T14:38:24.234Z,15.56
2023-04-25T14:40:55.092Z,14.83
2023-04-25T14:43:25.343Z,13.34
2023-04-25T14:45:58.179Z,13.09
2023-04-25T14:48:31.444Z,13.10
2023-04-25T14:51:02.083Z,14.02
2023-04-25T14:53:32.651Z,13.13
2023-04-25T14:56:03.182Z,12.98
2023-04-25T14:58:35.054Z,12.83
2023-04-25T15:01:05.588Z,12.63
2023-04-25T15:03:38.793Z,13.06
2023-04-25T15:06:10.052Z,13.25
2023-04-25T15:08:40.342Z,13.16
2023-04-25T15:11:12.114Z,13.63
2023-04-25T15:13:42.642Z,13.74
2023-04-25T15:16:13.901Z,13.89
2023-04-25T15:18:46.794Z,14.50
2023-04-25T15:21:17.368Z,15.16
2023-04-25T15:23:47.644Z,15.48
2023-04-25T15:26:18.003Z,14.83
2023-04-25T15:28:48.365Z,14.91
2023-04-25T15:31:18.604Z,14.85
2023-04-25T15:33:51.758Z,14.75
2023-04-25T15:36:22.696Z,14.60
2023-04-25T15:38:53.154Z,16.62
2023-04-25T15:41:23.465Z,16.19
2023-04-25T15:43:53.985Z,14.54
2023-04-25T15:46:24.647Z,13.00
2023-04-25T15:48:57.693Z,12.55
2023-04-25T15:51:28.341Z,11.68
2023-04-25T15:53:59.101Z,11.29
2023-04-25T15:56:29.457Z,10.73
2023-04-25T15:58:59.752Z,10.33
2023-04-25T16:01:31.313Z,10.12
2023-04-25T16:04:04.492Z,10.00
2023-04-25T16:06:35.008Z,10.03
2023-04-25T16:09:06.817Z,10.19
2023-04-25T16:11:37.059Z,10.52
2023-04-25T16:14:07.366Z,10.58
2023-04-25T16:16:37.706Z,10.66
2023-04-25T16:19:11.188Z,10.60
2023-04-25T16:21:42.212Z,10.55
2023-04-25T16:24:12.813Z,10.54
2023-04-25T16:26:43.818Z,10.35
2023-04-25T16:29:14.840Z,10.03
2023-04-25T16:31:47.305Z,10.10
2023-04-25T16:34:21.447Z,9.83
2023-04-25T16:36:51.748Z,9.95
2023-04-25T16:39:22.519Z,9.83
2023-04-25T16:41:52.794Z,9.61
2023-04-25T16:44:23.019Z,9.31
2023-04-25T16:46:53.333Z,9.18
2023-04-25T16:49:26.578Z,9.24
2023-04-25T16:51:56.909Z,9.30
2023-04-25T16:54:27.459Z,9.31
2023-04-25T16:56:58.360Z,9.30
2023-04-25T16:59:28.629Z,9.11
2023-04-25T17:01:58.920Z,8.96
2023-04-25T17:04:32.021Z,9.03
2023-04-25T17:07:02.493Z,9.01
2023-04-25T17:09:33.113Z,8.94
2023-04-25T17:12:03.870Z,8.86
2023-04-25T17:14:36.180Z,8.85
2023-04-25T17:17:07.167Z,8.75
2023-04-25T17:19:40.320Z,8.66
2023-04-25T17:22:10.581Z,8.76
2023-04-25T17:24:40.938Z,8.79
2023-04-25T17:27:11.283Z,8.89
2023-04-25T17:29:41.510Z,8.80
2023-04-25T17:32:13.279Z,8.82
2023-04-25T17:34:48.334Z,8.84
2023-04-25T17:37:19.058Z,8.91
2023-04-25T17:39:49.296Z,8.89
2023-04-25T17:42:19.545Z,8.84
2023-04-25T17:44:49.844Z,8.79
2023-04-25T17:47:20.398Z,8.65
2023-04-25T17:49:53.340Z,8.61
2023-04-25T17:52:24.041Z,8.60
2023-04-25T17:54:54.377Z,8.64
2023-04-25T17:57:25.463Z,8.53
2023-04-25T17:59:56.368Z,8.42
2023-04-25T18:02:27.302Z,8.26
2023-04-25T18:05:00.483Z,8.22
2023-04-25T18:07:30.740Z,7.99
2023-04-25T18:10:01.061Z,7.66
2023-04-25T18:12:31.438Z,7.34
2023-04-25T18:15:02.102Z,7.07
2023-04-25T18:17:32.352Z,6.86
2023-04-25T18:20:06.874Z,6.70
2023-04-25T18:22:37.182Z,6.58
2023-04-25T18:25:09.914Z,6.39
2023-04-25T18:27:40.290Z,6.15
2023-04-25T18:30:11.652Z,6.04
2023-04-25T18:32:42.367Z,5.97
2023-04-25T18:35:15.587Z,5.91
2023-04-25T18:37:45.868Z,5.88
2023-04-25T18:40:16.623Z,5.79
2023-04-25T18:42:47.047Z,5.75
2023-04-25T18:45:17.554Z,5.84
2023-04-25T18:47:48.150Z,5.90
2023-04-25T18:50:23.386Z,5.92
2023-04-25T18:52:54.406Z,5.95
2023-04-25T18:55:24.872Z,5.91
2023-04-25T18:57:55.176Z,5.93
2023-04-25T19:00:25.508Z,5.87
2023-04-25T19:02:58.091Z,5.91
2023-04-25T19:05:31.535Z,5.92
2023-04-25T19:08:02.575Z,5.92
2023-04-25T19:10:33.109Z,5.91
2023-04-25T19:13:03.455Z,5.77
2023-04-25T19:15:34.062Z,5.74
2023-04-25T19:18:05.309Z,5.79
2023-04-25T19:20:38.514Z,5.77
2023-04-25T19:23:09.185Z,5.82
2023-04-25T19:25:39.662Z,5.89
2023-04-25T19:28:13.006Z,5.93
2023-04-25T19:30:43.270Z,5.95
2023-04-25T19:33:14.211Z,5.94
2023-04-25T19:35:47.338Z,5.96
2023-04-25T19:38:17.774Z,5.95
2023-04-25T19:40:48.868Z,5.94
2023-04-25T19:43:19.335Z,5.95
2023-04-25T19:45:49.964Z,6.02
2023-04-25T19:48:20.210Z,6.04
2023-04-25T19:50:53.115Z,6.06
2023-04-25T19:53:23.348Z,6.02
2023-04-25T19:55:53.572Z,6.03
2023-04-25T19:58:24.065Z,6.00
2023-04-25T20:00:54.303Z,6.04
2023-04-25T20:03:24.694Z,6.12
2023-04-25T20:05:57.667Z,6.07
2023-04-25T20:08:28.254Z,6.11
2023-04-25T20:10:58.518Z,6.06
2023-04-25T20:13:28.767Z,6.04
2023-04-25T20:16:01.996Z,6.12
2023-04-25T20:18:32.897Z,6.13
2023-04-25T20:21:05.725Z,6.16
2023-04-25T20:23:35.940Z,6.19
2023-04-25T20:26:06.718Z,6.17
2023-04-25T20:28:37.361Z,6.21
2023-04-25T20:31:07.895Z,6.27
2023-04-25T20:33:38.763Z,6.31
2023-04-25T20:36:12.055Z,6.38
2023-04-25T20:38:42.270Z,6.42
2023-04-25T20:41:12.503Z,6.52
2023-04-25T20:43:42.755Z,6.49
2023-04-25T20:46:13.234Z,6.44
2023-04-25T20:48:43.489Z,6.43
2023-04-25T20:51:16.816Z,6.37
2023-04-25T20:53:47.006Z,6.41
2023-04-25T20:56:17.241Z,6.42
2023-04-25T20:58:47.591Z,6.48
2023-04-25T21:01:18.729Z,6.58
2023-04-25T21:03:50.233Z,6.44
2023-04-25T21:06:23.165Z,6.46
2023-04-25T21:08:53.693Z,6.54
2023-04-25T21:11:24.253Z,6.70
2023-04-25T21:13:54.596Z,6.73
2023-04-25T21:16:25.134Z,6.63
2023-04-25T21:18:55.477Z,6.59
2023-04-25T21:21:28.357Z,6.46
2023-04-25T21:23:58.620Z,6.50
2023-04-25T21:26:28.828Z,6.52
2023-04-25T21:28:59.139Z,6.55
2023-04-25T21:31:29.597Z,6.52
2023-04-25T21:33:59.974Z,6.52
2023-04-25T21:36:33.084Z,6.55
2023-04-25T21:39:05.631Z,6.56
2023-04-25T21:41:37.615Z,6.61
2023-04-25T21:44:07.937Z,6.56
2023-04-25T21:46:38.306Z,6.54
2023-04-25T21:49:09.224Z,6.45
2023-04-25T21:51:42.090Z,6.40
2023-04-25T21:54:12.292Z,6.41
2023-04-25T21:56:42.552Z,6.32
2023-04-25T21:59:13.085Z,6.28
2023-04-25T22:01:43.637Z,6.31
2023-04-25T22:04:14.171Z,6.37
2023-04-25T22:06:47.353Z,6.45
2023-04-25T22:09:17.854Z,6.46
2023-04-25T22:11:48.259Z,6.41
2023-04-25T22:14:18.643Z,6.46
2023-04-25T22:16:50.025Z,6.52
2023-04-25T22:19:20.272Z,6.41
2023-04-25T22:21:53.060Z,6.31
2023-04-25T22:24:28.315Z,6.20
2023-04-25T22:26:59.408Z,6.17
2023-04-25T22:29:29.667Z,6.20
2023-04-25T22:32:00.043Z,6.24
2023-04-25T22:34:30.392Z,6.28
2023-04-25T22:37:03.543Z,6.21
2023-04-25T22:39:33.853Z,6.21
2023-04-25T22:42:05.282Z,6.08
2023-04-25T22:44:36.837Z,6.08
2023-04-25T22:47:07.207Z,6.12
2023-04-25T22:49:37.758Z,6.10
2023-04-25T22:52:11.250Z,6.07
2023-04-25T22:54:42.079Z,6.04
2023-04-25T22:57:12.373Z,5.95
2023-04-25T22:59:42.908Z,5.96
2023-04-25T23:02:13.823Z,5.89
2023-04-25T23:04:44.807Z,5.95
2023-04-25T23:07:18.024Z,5.95
2023-04-25T23:09:48.220Z,5.98
2023-04-25T23:12:20.009Z,6.01
2023-04-25T23:14:52.055Z,6.11
2023-04-25T23:17:22.586Z,6.18
2023-04-25T23:19:52.830Z,6.17
2023-04-25T23:22:25.655Z,6.17
2023-04-25T23:24:56.113Z,6.00
2023-04-25T23:27:26.326Z,5.98
2023-04-25T23:29:58.112Z,5.92
2023-04-25T23:32:28.863Z,5.91
2023-04-25T23:34:59.231Z,5.90
2023-04-25T23:37:32.886Z,5.91
2023-04-25T23:40:06.221Z,6.00
2023-04-25T23:42:36.805Z,6.02
2023-04-25T23:45:07.806Z,5.99
2023-04-25T23:47:38.177Z,5.93
2023-04-25T23:50:09.376Z,5.92
2023-04-25T23:52:42.257Z,5.90
2023-04-25T23:55:12.685Z,5.73
2023-04-25T23:57:44.610Z,5.73
